Terminal Aerodrome Forecast
Issued by NWS

Home | Current Version | Previous Version | Text Only | Print | Product List | Glossary On
Versions: 1 2 3 4 5 6 7 8 9 10 11 12 13 14 15 16 17 18 19 20
000
FTUS43 KDLH 120534
TAFBRD
TAF
KBRD 120534Z 1206/1306 32010KT P6SM FEW020
     FM121400 24005KT P6SM SCT025 BKN045
     FM121900 20004KT P6SM VCSH BKN019
     FM130500 16003KT 6SM BR OVC015=

USA.gov is the U.S. government's official web portal to all federal, state and local government web resources and services.